createdAt,value
2019-01-23T00:01:56.072Z,95028.20
2019-01-23T00:04:27.414Z,95029.42
2019-01-23T00:06:58.464Z,95024.10
2019-01-23T00:09:29.470Z,95030.14
2019-01-23T00:12:00.525Z,95021.73
2019-01-23T00:14:31.573Z,95015.22
2019-01-23T00:17:02.864Z,95011.89
2019-01-23T00:19:33.851Z,95008.36
2019-01-23T00:22:05.684Z,95006.25
2019-01-23T00:24:36.667Z,95001.50
2019-01-23T00:27:07.626Z,94995.23
2019-01-23T00:29:39.311Z,94997.31
2019-01-23T00:32:10.281Z,94986.08
2019-01-23T00:34:42.254Z,94979.77
2019-01-23T00:37:13.575Z,94983.84
2019-01-23T00:39:44.734Z,94977.04
2019-01-23T00:42:16.906Z,94977.06
2019-01-23T00:44:48.940Z,94980.20
2019-01-23T00:47:20.013Z,94976.77
2019-01-23T00:49:51.328Z,94977.20
2019-01-23T00:52:22.659Z,94967.91
2019-01-23T00:54:53.656Z,94963.73
2019-01-23T00:57:25.027Z,94966.45
2019-01-23T00:59:56.027Z,94962.11
2019-01-23T01:02:27.064Z,94956.84
2019-01-23T01:04:58.416Z,94953.13
2019-01-23T01:07:29.919Z,94949.73
2019-01-23T01:10:00.977Z,94945.23
2019-01-23T01:12:32.275Z,94945.05
2019-01-23T01:15:03.581Z,94940.84
2019-01-23T01:17:34.754Z,94939.33
2019-01-23T01:20:08.388Z,94945.47
2019-01-23T01:22:39.576Z,94934.66
2019-01-23T01:25:13.859Z,94937.52
2019-01-23T01:27:45.257Z,94939.28
2019-01-23T01:30:22.362Z,94934.96
2019-01-23T01:32:53.506Z,94934.18
2019-01-23T01:35:24.641Z,94931.42
2019-01-23T01:37:55.651Z,94924.03
2019-01-23T01:40:27.821Z,94920.41
2019-01-23T01:42:58.988Z,94916.63
2019-01-23T01:45:30.090Z,94916.00
2019-01-23T01:48:01.176Z,94909.86
2019-01-23T01:50:32.501Z,94907.08
2019-01-23T01:53:03.631Z,94907.81
2019-01-23T01:55:35.159Z,94910.89
2019-01-23T01:58:10.013Z,94908.19
2019-01-23T02:00:39.568Z,94902.17
2019-01-23T02:03:10.593Z,94901.25
2019-01-23T02:05:41.615Z,94896.95
2019-01-23T02:08:12.962Z,94891.34
2019-01-23T02:10:43.944Z,94890.16
2019-01-23T02:13:15.256Z,94878.02
2019-01-23T02:15:46.239Z,94879.89
2019-01-23T02:18:17.235Z,94870.55
2019-01-23T02:20:48.486Z,94870.87
2019-01-23T02:23:19.951Z,94867.75
2019-01-23T02:25:51.159Z,94860.55
2019-01-23T02:28:22.447Z,94858.77
2019-01-23T02:30:54.383Z,94861.46
2019-01-23T02:33:26.038Z,94848.51
2019-01-23T02:35:57.084Z,94846.81
2019-01-23T02:38:28.164Z,94839.05
2019-01-23T02:40:59.496Z,94836.59
2019-01-23T02:43:30.570Z,94831.20
2019-01-23T02:46:02.507Z,94827.38
2019-01-23T02:48:34.088Z,94826.50
2019-01-23T02:51:05.378Z,94817.23
2019-01-23T02:53:36.345Z,94813.42
2019-01-23T02:56:08.816Z,94814.75
2019-01-23T02:58:39.863Z,94816.86
2019-01-23T03:01:10.910Z,94813.70
2019-01-23T03:03:41.887Z,94805.94
2019-01-23T03:06:13.084Z,94803.75
2019-01-23T03:08:44.380Z,94799.08
2019-01-23T03:11:15.420Z,94798.64
2019-01-23T03:13:46.376Z,94793.19
2019-01-23T03:16:17.402Z,94788.09
2019-01-23T03:18:48.729Z,94790.47
2019-01-23T03:21:20.109Z,94786.33
2019-01-23T03:23:52.406Z,94785.02
2019-01-23T03:26:23.639Z,94770.90
2019-01-23T03:28:54.604Z,94768.02
2019-01-23T03:31:25.930Z,94772.81
2019-01-23T03:33:56.895Z,94768.73
2019-01-23T03:36:28.254Z,94771.80
2019-01-23T03:38:59.452Z,94766.16
2019-01-23T03:41:30.429Z,94764.86
2019-01-23T03:44:01.712Z,94764.04
2019-01-23T03:46:33.265Z,94766.72
2019-01-23T03:49:04.797Z,94763.35
2019-01-23T03:51:35.883Z,94765.89
2019-01-23T03:54:07.213Z,94765.48
2019-01-23T03:56:38.579Z,94758.28
2019-01-23T03:59:09.570Z,94753.07
2019-01-23T04:01:40.725Z,94751.73
2019-01-23T04:04:12.101Z,94746.47
2019-01-23T04:06:43.679Z,94749.95
2019-01-23T04:09:14.638Z,94740.59
2019-01-23T04:11:45.708Z,94747.07
2019-01-23T04:14:16.941Z,94740.12
2019-01-23T04:16:47.985Z,94742.84
2019-01-23T04:19:20.004Z,94734.70
2019-01-23T04:21:51.068Z,94735.38
2019-01-23T04:24:23.462Z,94739.73
2019-01-23T04:26:54.449Z,94736.13
2019-01-23T04:29:25.816Z,94728.80
2019-01-23T04:31:57.674Z,94726.30
2019-01-23T04:34:28.956Z,94725.16
2019-01-23T04:36:59.945Z,94716.67
2019-01-23T04:39:31.125Z,94725.81
2019-01-23T04:42:02.148Z,94716.00
2019-01-23T04:44:33.510Z,94722.73
2019-01-23T04:47:04.534Z,94720.27
2019-01-23T04:49:35.747Z,94722.55
2019-01-23T04:52:15.644Z,94714.80
2019-01-23T04:54:46.858Z,94717.45
2019-01-23T04:57:17.825Z,94705.45
2019-01-23T04:59:48.813Z,94699.98
2019-01-23T05:02:19.790Z,94699.31
2019-01-23T05:04:51.142Z,94691.91
2019-01-23T05:07:22.214Z,94695.33
2019-01-23T05:09:53.908Z,94696.66
2019-01-23T05:12:25.008Z,94695.84
2019-01-23T05:14:56.067Z,94694.20
2019-01-23T05:17:27.376Z,94689.70
2019-01-23T05:19:58.433Z,94693.95
2019-01-23T05:22:29.487Z,94687.36
2019-01-23T05:25:00.584Z,94693.80
2019-01-23T05:27:31.786Z,94691.73
2019-01-23T05:30:02.900Z,94684.05
2019-01-23T05:32:34.053Z,94691.24
2019-01-23T05:35:06.068Z,94688.18
2019-01-23T05:37:38.409Z,94681.47
2019-01-23T05:40:09.931Z,94687.25
2019-01-23T05:42:41.111Z,94680.34
2019-01-23T05:45:13.797Z,94677.17
2019-01-23T05:47:44.903Z,94671.08
2019-01-23T05:50:17.010Z,94672.44
2019-01-23T05:52:49.064Z,94680.73
2019-01-23T05:55:20.053Z,94669.92
2019-01-23T05:57:51.068Z,94667.44
2019-01-23T06:00:23.138Z,94677.97
2019-01-23T06:02:55.258Z,94674.73
2019-01-23T06:05:26.623Z,94677.19
2019-01-23T06:07:58.295Z,94676.91
2019-01-23T06:10:29.832Z,94674.68
2019-01-23T06:13:00.858Z,94674.42
2019-01-23T06:15:32.108Z,94668.34
2019-01-23T06:18:03.419Z,94670.88
2019-01-23T06:20:34.589Z,94670.30
2019-01-23T06:23:05.780Z,94668.22
2019-01-23T06:25:36.765Z,94665.24
2019-01-23T06:28:07.798Z,94665.87
2019-01-23T06:30:39.150Z,94672.37
2019-01-23T06:33:10.193Z,94663.63
2019-01-23T06:35:41.541Z,94668.73
2019-01-23T06:38:12.782Z,94665.40
2019-01-23T06:40:43.840Z,94671.80
2019-01-23T06:43:14.861Z,94674.20
2019-01-23T06:45:45.971Z,94666.16
2019-01-23T06:48:17.982Z,94671.14
2019-01-23T06:50:49.357Z,94665.91
2019-01-23T06:53:31.279Z,94669.48
2019-01-23T06:56:16.310Z,94666.72
2019-01-23T06:58:48.048Z,94671.77
2019-01-23T07:01:19.258Z,94665.91
2019-01-23T07:03:51.258Z,94663.45
2019-01-23T07:06:22.313Z,94663.58
2019-01-23T07:08:54.734Z,94662.64
2019-01-23T07:11:25.713Z,94664.50
2019-01-23T07:13:56.761Z,94664.80
2019-01-23T07:16:27.721Z,94657.42
2019-01-23T07:18:58.730Z,94657.18
2019-01-23T07:21:30.893Z,94655.89
2019-01-23T07:24:01.881Z,94657.94
2019-01-23T07:26:32.849Z,94660.70
2019-01-23T07:29:03.858Z,94658.30
2019-01-23T07:31:34.835Z,94656.52
2019-01-23T07:34:06.400Z,94657.06
2019-01-23T07:36:37.388Z,94656.38
2019-01-23T07:39:11.160Z,94661.98
2019-01-23T07:41:43.075Z,94653.97
2019-01-23T07:44:15.085Z,94655.20
2019-01-23T07:46:46.534Z,94653.08
2019-01-23T07:49:17.599Z,94649.09
2019-01-23T07:51:48.578Z,94652.14
2019-01-23T07:54:19.675Z,94653.67
2019-01-23T07:56:50.740Z,94642.98
2019-01-23T07:59:21.739Z,94650.78
2019-01-23T08:01:52.717Z,94646.42
2019-01-23T08:04:25.263Z,94642.14
2019-01-23T08:06:56.221Z,94641.26
2019-01-23T08:09:27.473Z,94640.55
2019-01-23T08:11:58.583Z,94641.04
2019-01-23T08:14:30.887Z,94633.00
2019-01-23T08:17:04.475Z,94629.05
2019-01-23T08:19:35.440Z,94628.98
2019-01-23T08:22:09.822Z,94629.67
2019-01-23T08:24:41.859Z,94624.56
2019-01-23T08:27:13.071Z,94623.78
2019-01-23T08:29:44.033Z,94624.34
2019-01-23T08:32:15.055Z,94624.61
2019-01-23T08:34:46.105Z,94622.98
2019-01-23T08:37:17.360Z,94628.80
2019-01-23T08:39:48.316Z,94625.78
2019-01-23T08:42:19.601Z,94627.14
2019-01-23T08:44:50.890Z,94622.71
2019-01-23T08:47:22.172Z,94622.73
2019-01-23T08:49:53.287Z,94622.83
2019-01-23T08:52:25.476Z,94620.44
2019-01-23T08:54:56.832Z,94616.62
2019-01-23T08:57:27.878Z,94621.59
2019-01-23T08:59:59.361Z,94614.81
2019-01-23T09:02:31.320Z,94616.16
2019-01-23T09:05:02.595Z,94619.05
2019-01-23T09:07:35.042Z,94612.40
2019-01-23T09:10:10.796Z,94614.02
2019-01-23T09:12:41.825Z,94613.44
2019-01-23T09:15:13.684Z,94613.63
2019-01-23T09:17:45.037Z,94614.11
2019-01-23T09:20:18.270Z,94612.94
2019-01-23T09:22:49.554Z,94618.61
2019-01-23T09:25:22.854Z,94612.84
2019-01-23T09:27:54.144Z,94612.52
2019-01-23T09:30:52.753Z,94616.80
2019-01-23T09:34:05.759Z,94613.50
2019-01-23T09:37:27.410Z,94609.58
2019-01-23T09:40:55.638Z,94616.48
2019-01-23T09:44:19.428Z,94617.98
2019-01-23T09:47:28.898Z,94619.66
2019-01-23T09:50:33.949Z,94619.77
2019-01-23T09:53:43.080Z,94613.96
2019-01-23T09:56:17.283Z,94607.48
2019-01-23T09:58:48.249Z,94608.51
2019-01-23T10:01:19.318Z,94599.81
2019-01-23T10:03:50.519Z,94606.12
2019-01-23T10:06:21.488Z,94606.09
2019-01-23T10:08:53.068Z,94604.14
2019-01-23T10:11:24.032Z,94606.34
2019-01-23T10:13:55.353Z,94607.55
2019-01-23T10:16:26.483Z,94601.55
2019-01-23T10:18:57.726Z,94597.98
2019-01-23T10:21:28.919Z,94602.11
2019-01-23T10:24:00.315Z,94602.93
2019-01-23T10:26:32.130Z,94595.22
2019-01-23T10:29:03.112Z,94594.81
2019-01-23T10:31:34.091Z,94596.41
2019-01-23T10:34:05.459Z,94587.84
2019-01-23T10:36:36.959Z,94584.75
2019-01-23T10:39:09.783Z,94581.05
2019-01-23T10:41:40.913Z,94582.23
2019-01-23T10:44:11.966Z,94578.97
2019-01-23T10:46:43.018Z,94578.32
2019-01-23T10:49:14.009Z,94575.83
2019-01-23T10:51:44.970Z,94569.86
2019-01-23T10:54:15.923Z,94575.39
2019-01-23T10:56:47.205Z,94570.91
2019-01-23T10:59:18.603Z,94575.97
2019-01-23T11:01:49.573Z,94567.48
2019-01-23T11:04:20.977Z,94569.61
2019-01-23T11:06:52.122Z,94567.14
2019-01-23T11:09:23.448Z,94572.19
2019-01-23T11:11:54.641Z,94575.46
2019-01-23T11:14:25.701Z,94573.48
2019-01-23T11:16:56.765Z,94572.32
2019-01-23T11:19:28.116Z,94573.39
2019-01-23T11:21:59.093Z,94562.00
2019-01-23T11:24:30.287Z,94558.86
2019-01-23T11:27:01.404Z,94562.55
2019-01-23T11:29:33.781Z,94560.34
2019-01-23T11:32:05.437Z,94554.42
2019-01-23T11:34:36.399Z,94551.02
2019-01-23T11:37:07.456Z,94546.36
2019-01-23T11:39:38.824Z,94549.85
2019-01-23T11:42:10.285Z,94555.42
2019-01-23T11:44:41.420Z,94551.91
2019-01-23T11:47:12.485Z,94551.42
2019-01-23T11:49:43.451Z,94548.83
2019-01-23T11:52:14.847Z,94546.27
2019-01-23T11:54:45.892Z,94547.09
2019-01-23T11:57:17.237Z,94542.06
2019-01-23T11:59:48.284Z,94545.43
2019-01-23T12:02:20.342Z,94546.48
2019-01-23T12:04:52.515Z,94549.68
2019-01-23T12:07:24.557Z,94549.92
2019-01-23T12:09:55.535Z,94555.11
2019-01-23T12:12:26.886Z,94550.84
2019-01-23T12:14:58.087Z,94550.09
2019-01-23T12:17:29.317Z,94552.20
2019-01-23T12:20:00.602Z,94555.36
2019-01-23T12:22:32.622Z,94551.45
2019-01-23T12:25:04.676Z,94554.98
2019-01-23T12:27:36.083Z,94558.93
2019-01-23T12:30:12.679Z,94550.38
2019-01-23T12:32:43.756Z,94553.32
2019-01-23T12:35:14.798Z,94558.67
2019-01-23T12:37:45.910Z,94546.44
2019-01-23T12:40:17.151Z,94549.14
2019-01-23T12:42:48.656Z,94553.86
2019-01-23T12:45:26.170Z,94554.62
2019-01-23T12:47:57.621Z,94553.52
2019-01-23T12:50:31.159Z,94548.74
2019-01-23T12:53:02.227Z,94552.56
2019-01-23T12:55:36.774Z,94546.08
2019-01-23T12:58:07.866Z,94543.31
2019-01-23T13:00:39.448Z,94548.74
2019-01-23T13:03:10.580Z,94543.41
2019-01-23T13:05:41.733Z,94542.61
2019-01-23T13:08:12.914Z,94537.28
2019-01-23T13:10:43.873Z,94541.19
2019-01-23T13:13:14.874Z,94542.20
2019-01-23T13:15:46.245Z,94541.97
2019-01-23T13:18:17.240Z,94539.33
2019-01-23T13:20:48.642Z,94540.97
2019-01-23T13:23:20.032Z,94539.26
2019-01-23T13:25:51.437Z,94536.66
2019-01-23T13:28:22.478Z,94541.92
2019-01-23T13:30:54.195Z,94534.77
2019-01-23T13:33:25.303Z,94541.52
2019-01-23T13:35:56.371Z,94541.72
2019-01-23T13:38:27.338Z,94549.80
2019-01-23T13:40:58.638Z,94551.27
2019-01-23T13:43:29.677Z,94552.11
2019-01-23T13:46:01.276Z,94555.23
2019-01-23T13:48:32.404Z,94559.60
2019-01-23T13:51:04.869Z,94557.04
2019-01-23T13:53:35.992Z,94564.09
2019-01-23T13:56:07.144Z,94565.91
2019-01-23T13:58:41.906Z,94562.00
2019-01-23T14:01:11.113Z,94565.70
2019-01-23T14:03:42.361Z,94566.31
2019-01-23T14:06:13.362Z,94568.78
2019-01-23T14:08:44.619Z,94568.58
2019-01-23T14:11:15.824Z,94576.87
2019-01-23T14:13:47.119Z,94577.86
2019-01-23T14:16:18.743Z,94579.75
2019-01-23T14:18:49.707Z,94584.27
2019-01-23T14:21:20.695Z,94588.13
2019-01-23T14:23:51.893Z,94588.39
2019-01-23T14:26:22.884Z,94591.19
2019-01-23T14:28:53.891Z,94598.45
2019-01-23T14:31:25.263Z,94597.36
2019-01-23T14:33:57.615Z,94596.55
2019-01-23T14:36:28.755Z,94602.59
2019-01-23T14:39:00.026Z,94612.22
2019-01-23T14:41:30.998Z,94610.11
2019-01-23T14:44:02.066Z,94611.56
2019-01-23T14:46:33.044Z,94609.25
2019-01-23T14:49:05.470Z,94611.81
2019-01-23T14:51:37.303Z,94615.82
2019-01-23T14:54:08.333Z,94622.46
2019-01-23T14:56:39.454Z,94619.03
2019-01-23T14:59:10.612Z,94610.41
2019-01-23T15:01:41.582Z,94618.20
2019-01-23T15:04:12.920Z,94621.86
2019-01-23T15:06:45.155Z,94619.27
2019-01-23T15:09:16.244Z,94623.84
2019-01-23T15:11:47.258Z,94623.20
2019-01-23T15:14:18.508Z,94626.23
2019-01-23T15:16:49.544Z,94628.41
2019-01-23T15:19:20.799Z,94622.17
2019-01-23T15:21:51.879Z,94631.88
2019-01-23T15:24:23.249Z,94629.84
2019-01-23T15:26:54.353Z,94642.92
2019-01-23T15:29:25.738Z,94632.36
2019-01-23T15:31:56.854Z,94630.16
2019-01-23T15:34:28.258Z,94635.52
2019-01-23T15:36:59.455Z,94636.41
2019-01-23T15:39:30.600Z,94640.39
2019-01-23T15:42:01.836Z,94635.91
2019-01-23T15:44:33.156Z,94641.78
2019-01-23T15:47:08.271Z,94643.74
2019-01-23T15:49:39.735Z,94648.24
2019-01-23T15:52:11.201Z,94644.03
2019-01-23T15:54:43.663Z,94654.28
2019-01-23T15:57:14.970Z,94653.16
2019-01-23T15:59:46.241Z,94659.08
2019-01-23T16:02:24.098Z,94657.39
2019-01-23T16:04:50.605Z,94661.09
2019-01-23T16:07:21.742Z,94662.16
2019-01-23T16:09:53.503Z,94668.79
2019-01-23T16:12:24.975Z,94675.03
2019-01-23T16:14:56.497Z,94677.76
2019-01-23T16:17:27.707Z,94679.58
2019-01-23T16:19:59.491Z,94685.27
2019-01-23T16:22:30.627Z,94689.95
2019-01-23T16:25:02.296Z,94690.24
2019-01-23T16:27:33.910Z,94696.83
2019-01-23T16:30:10.085Z,94699.20
2019-01-23T16:32:41.324Z,94698.53
2019-01-23T16:35:12.917Z,94706.89
2019-01-23T16:37:44.567Z,94703.39
2019-01-23T16:40:15.851Z,94705.41
2019-01-23T16:42:47.147Z,94705.41
2019-01-23T16:45:19.246Z,94708.30
2019-01-23T16:47:50.783Z,94715.57
2019-01-23T16:50:23.361Z,94716.55
2019-01-23T16:52:55.529Z,94720.85
2019-01-23T16:55:27.187Z,94721.46
2019-01-23T16:58:00.146Z,94725.36
2019-01-23T17:00:32.127Z,94733.30
2019-01-23T17:03:04.064Z,94736.70
2019-01-23T17:05:36.678Z,94739.30
2019-01-23T17:08:09.490Z,94737.70
2019-01-23T17:10:41.042Z,94743.57
2019-01-23T17:13:12.432Z,94747.88
2019-01-23T17:15:44.197Z,94742.11
2019-01-23T17:18:15.582Z,94749.97
2019-01-23T17:20:50.048Z,94747.87
2019-01-23T17:23:21.747Z,94752.48
2019-01-23T17:25:53.343Z,94754.14
2019-01-23T17:28:24.658Z,94759.52
2019-01-23T17:30:56.213Z,94760.94
2019-01-23T17:33:27.588Z,94766.91
2019-01-23T17:35:59.573Z,94771.80
2019-01-23T17:38:31.102Z,94766.07
2019-01-23T17:41:02.452Z,94773.66
2019-01-23T17:43:34.981Z,94773.26
2019-01-23T17:46:06.485Z,94772.55
2019-01-23T17:48:40.456Z,94773.13
2019-01-23T17:51:11.804Z,94778.45
2019-01-23T17:53:43.475Z,94782.63
2019-01-23T17:56:15.294Z,94780.95
2019-01-23T17:58:47.389Z,94788.93
2019-01-23T18:01:18.899Z,94784.85
2019-01-23T18:03:50.587Z,94793.24
2019-01-23T18:06:22.378Z,94791.80
2019-01-23T18:08:53.975Z,94792.51
2019-01-23T18:11:25.664Z,94791.80
2019-01-23T18:13:57.220Z,94800.59
2019-01-23T18:16:28.928Z,94801.99
2019-01-23T18:19:00.734Z,94800.11
2019-01-23T18:21:32.887Z,94805.72
2019-01-23T18:24:04.489Z,94806.73
2019-01-23T18:26:37.675Z,94806.92
2019-01-23T18:29:10.762Z,94808.26
2019-01-23T18:32:03.338Z,94805.95
2019-01-23T18:35:17.311Z,94808.19
2019-01-23T18:38:45.863Z,94815.27
2019-01-23T18:42:07.867Z,94819.33
2019-01-23T18:44:51.669Z,94818.96
2019-01-23T18:48:21.724Z,94829.52
2019-01-23T18:51:28.510Z,94829.15
2019-01-23T18:54:00.470Z,94833.97
2019-01-23T18:56:33.688Z,94837.20
2019-01-23T18:59:06.064Z,94837.04
2019-01-23T19:01:37.780Z,94845.62
2019-01-23T19:04:09.643Z,94848.13
2019-01-23T19:06:43.237Z,94847.02
2019-01-23T19:09:17.686Z,94848.99
2019-01-23T19:11:49.402Z,94848.77
2019-01-23T19:14:24.608Z,94852.59
2019-01-23T19:16:55.453Z,94854.02
2019-01-23T19:19:27.452Z,94855.94
2019-01-23T19:21:59.486Z,94860.32
2019-01-23T19:24:31.429Z,94860.58
2019-01-23T19:27:03.604Z,94866.62
2019-01-23T19:29:37.494Z,94876.47
2019-01-23T19:34:45.208Z,94879.05
2019-01-23T19:37:17.099Z,94878.05
2019-01-23T19:39:49.005Z,94876.50
2019-01-23T19:42:21.322Z,94873.58
2019-01-23T19:44:52.982Z,94886.66
2019-01-23T19:47:25.015Z,94887.17
2019-01-23T19:49:57.061Z,94886.48
2019-01-23T19:52:29.425Z,94887.17
2019-01-23T19:55:01.844Z,94887.77
2019-01-23T19:57:33.998Z,94897.59
2019-01-23T20:00:11.131Z,94901.78
2019-01-23T20:02:44.133Z,94902.89
2019-01-23T20:05:25.247Z,94905.97
2019-01-23T20:07:57.516Z,94907.81
2019-01-23T20:10:30.269Z,94910.28
2019-01-23T20:13:02.256Z,94916.77
2019-01-23T20:15:34.082Z,94926.27
2019-01-23T20:18:10.779Z,94922.53
2019-01-23T20:20:43.134Z,94921.23
2019-01-23T20:23:14.898Z,94925.79
2019-01-23T20:25:47.941Z,94928.45
2019-01-23T20:28:19.932Z,94930.15
2019-01-23T20:30:51.736Z,94931.91
2019-01-23T20:33:27.876Z,94933.66
2019-01-23T20:35:57.377Z,94928.62
2019-01-23T20:38:29.028Z,94930.32
2019-01-23T20:41:00.999Z,94926.97
2019-01-23T20:43:32.760Z,94937.33
2019-01-23T20:46:04.645Z,94932.84
2019-01-23T20:48:36.667Z,94941.57
2019-01-23T20:51:08.611Z,94936.80
2019-01-23T20:53:40.281Z,94940.44
2019-01-23T20:56:12.121Z,94946.24
2019-01-23T20:58:44.522Z,94948.70
2019-01-23T21:01:16.387Z,94955.47
2019-01-23T21:03:48.047Z,94956.74
2019-01-23T21:06:20.223Z,94962.41
2019-01-23T21:08:52.148Z,94965.73
2019-01-23T21:11:23.710Z,94968.14
2019-01-23T21:13:55.273Z,94971.58
2019-01-23T21:16:26.954Z,94966.92
2019-01-23T21:18:58.623Z,94970.47
2019-01-23T21:21:30.367Z,94970.25
2019-01-23T21:24:01.850Z,94969.02
2019-01-23T21:26:33.508Z,94972.65
2019-01-23T21:29:05.635Z,94971.84
2019-01-23T21:31:37.207Z,94975.02
2019-01-23T21:34:08.738Z,94982.94
2019-01-23T21:36:40.163Z,94981.27
2019-01-23T21:39:12.732Z,94984.34
2019-01-23T21:41:45.237Z,94985.27
2019-01-23T21:44:16.507Z,94995.19
2019-01-23T21:46:47.867Z,94987.78
2019-01-23T21:49:19.401Z,94996.95
2019-01-23T21:51:51.801Z,94996.73
2019-01-23T21:54:23.382Z,94992.30
2019-01-23T21:56:54.709Z,95000.14
2019-01-23T21:59:25.956Z,95000.07
2019-01-23T22:01:57.597Z,94996.11
2019-01-23T22:04:28.951Z,94999.25
2019-01-23T22:07:00.158Z,95004.25
2019-01-23T22:09:31.396Z,95003.91
2019-01-23T22:12:02.380Z,95009.98
2019-01-23T22:14:33.423Z,95003.66
2019-01-23T22:17:04.899Z,95003.52
2019-01-23T22:19:36.057Z,95014.35
2019-01-23T22:22:07.924Z,95013.86
2019-01-23T22:24:39.172Z,95015.98
2019-01-23T22:27:10.317Z,95014.53
2019-01-23T22:29:41.518Z,95020.72
2019-01-23T22:32:12.515Z,95024.30
2019-01-23T22:34:44.114Z,95024.30
2019-01-23T22:37:15.163Z,95032.77
2019-01-23T22:39:47.453Z,95032.63
2019-01-23T22:42:18.433Z,95033.19
2019-01-23T22:44:51.196Z,95037.73
2019-01-23T22:47:22.537Z,95037.77
2019-01-23T22:49:54.308Z,95041.73
2019-01-23T22:52:25.279Z,95041.93
2019-01-23T22:54:56.615Z,95045.81
2019-01-23T22:57:27.627Z,95053.66
2019-01-23T22:59:58.594Z,95057.47
2019-01-23T23:02:29.730Z,95055.05
2019-01-23T23:05:00.880Z,95056.72
2019-01-23T23:07:32.166Z,95058.74
2019-01-23T23:10:03.655Z,95065.05
2019-01-23T23:12:34.628Z,95063.48
2019-01-23T23:15:07.133Z,95068.94
2019-01-23T23:17:38.186Z,95068.92
2019-01-23T23:20:09.901Z,95083.79
2019-01-23T23:22:41.158Z,95087.05
2019-01-23T23:25:12.352Z,95089.06
2019-01-23T23:27:43.718Z,95086.78
2019-01-23T23:30:15.341Z,95089.12
2019-01-23T23:32:46.561Z,95090.81
2019-01-23T23:35:17.682Z,95099.89
2019-01-23T23:37:48.656Z,95098.19
2019-01-23T23:40:21.210Z,95101.52
2019-01-23T23:42:52.623Z,95102.99
2019-01-23T23:45:24.078Z,95109.69
2019-01-23T23:47:55.146Z,95112.32
2019-01-23T23:50:26.102Z,95117.09
2019-01-23T23:52:57.230Z,95120.58
2019-01-23T23:55:28.281Z,95122.31
2019-01-23T23:57:59.694Z,95128.30
